createdAt,value
2023-05-09T00:01:40.026Z,4.60
2023-05-09T00:04:07.683Z,5.25
2023-05-09T00:06:35.360Z,6.43
2023-05-09T00:09:03.000Z,4.68
2023-05-09T00:11:30.292Z,5.70
2023-05-09T00:13:58.533Z,7.63
2023-05-09T00:16:25.910Z,6.47
2023-05-09T00:18:53.562Z,14.55
2023-05-09T00:21:20.899Z,9.77
2023-05-09T00:23:48.514Z,12.82
2023-05-09T00:26:16.560Z,9.07
2023-05-09T00:28:44.129Z,6.65
2023-05-09T00:31:11.714Z,11.60
2023-05-09T00:33:39.479Z,6.82
2023-05-09T00:36:06.937Z,7.28
2023-05-09T00:38:34.524Z,9.98
2023-05-09T00:41:01.802Z,5.95
2023-05-09T00:43:29.503Z,6.85
2023-05-09T00:45:56.903Z,7.45
2023-05-09T00:48:24.668Z,6.35
2023-05-09T00:50:53.064Z,5.68
2023-05-09T00:53:21.368Z,5.50
2023-05-09T00:55:49.223Z,5.47
2023-05-09T00:58:19.271Z,6.15
2023-05-09T01:00:46.933Z,7.50
2023-05-09T01:03:14.730Z,9.10
2023-05-09T01:05:53.554Z,8.80
2023-05-09T01:08:21.291Z,8.00
2023-05-09T01:10:51.894Z,9.55
2023-05-09T01:13:27.430Z,7.60
2023-05-09T01:15:57.964Z,7.68
2023-05-09T01:18:25.648Z,7.80
2023-05-09T01:21:03.790Z,7.70
2023-05-09T01:23:31.551Z,7.32
2023-05-09T01:26:17.466Z,6.78
2023-05-09T01:29:12.757Z,7.55
2023-05-09T01:31:44.231Z,7.05
2023-05-09T01:34:12.352Z,8.05
2023-05-09T01:36:40.968Z,11.73
2023-05-09T01:39:12.392Z,7.47
2023-05-09T01:41:39.870Z,7.40
2023-05-09T01:44:08.865Z,8.65
2023-05-09T01:46:36.811Z,7.25
2023-05-09T01:49:05.756Z,7.32
2023-05-09T01:51:34.357Z,8.35
2023-05-09T01:54:02.555Z,8.75
2023-05-09T01:56:31.109Z,8.05
2023-05-09T01:58:59.221Z,7.60
2023-05-09T02:01:26.703Z,8.23
2023-05-09T02:03:54.952Z,8.07
2023-05-09T02:06:23.831Z,8.02
2023-05-09T02:08:51.682Z,8.80
2023-05-09T02:11:19.057Z,8.93
2023-05-09T02:13:47.053Z,8.98
2023-05-09T02:16:15.215Z,8.05
2023-05-09T02:18:43.005Z,7.57
2023-05-09T02:21:10.426Z,9.15
2023-05-09T02:23:38.334Z,8.02
2023-05-09T02:26:05.982Z,9.30
2023-05-09T02:28:34.079Z,10.10
2023-05-09T02:31:03.484Z,8.90
2023-05-09T02:33:31.431Z,7.68
2023-05-09T02:35:58.808Z,8.43
2023-05-09T02:38:27.384Z,8.52
2023-05-09T02:40:54.868Z,8.15
2023-05-09T02:43:22.612Z,8.10
2023-05-09T02:45:50.019Z,7.65
2023-05-09T02:48:17.769Z,8.15
2023-05-09T02:50:45.955Z,9.80
2023-05-09T02:53:13.601Z,17.48
2023-05-09T02:55:41.377Z,13.02
2023-05-09T02:58:13.517Z,13.07
2023-05-09T03:00:41.815Z,12.13
2023-05-09T03:03:10.041Z,10.82
2023-05-09T03:05:37.450Z,15.05
2023-05-09T03:08:05.591Z,12.25
2023-05-09T03:10:33.126Z,13.38
2023-05-09T03:13:00.939Z,11.98
2023-05-09T03:15:28.352Z,11.40
2023-05-09T03:17:56.027Z,10.40
2023-05-09T03:20:23.443Z,8.88
2023-05-09T03:22:51.150Z,8.75
2023-05-09T03:25:18.484Z,9.75
2023-05-09T03:27:46.155Z,9.25
2023-05-09T03:30:13.752Z,10.65
2023-05-09T03:32:41.512Z,12.45
2023-05-09T03:35:09.027Z,28.42
2023-05-09T03:37:36.639Z,17.00
2023-05-09T03:40:04.864Z,16.02
2023-05-09T03:42:32.667Z,10.32
2023-05-09T03:45:00.029Z,15.65
2023-05-09T03:47:27.753Z,18.25
2023-05-09T03:49:55.153Z,9.77
2023-05-09T03:52:22.856Z,7.30
2023-05-09T03:54:50.258Z,8.93
2023-05-09T03:57:17.876Z,6.85
2023-05-09T03:59:45.204Z,6.97
2023-05-09T04:02:12.922Z,8.25
2023-05-09T04:04:40.306Z,16.02
2023-05-09T04:07:08.067Z,12.32
2023-05-09T04:09:35.651Z,11.57
2023-05-09T04:12:03.367Z,6.32
2023-05-09T04:14:31.069Z,6.15
2023-05-09T04:16:58.773Z,18.55
2023-05-09T04:19:26.153Z,9.63
2023-05-09T04:21:53.894Z,16.35
2023-05-09T04:24:21.270Z,10.85
2023-05-09T04:26:49.029Z,6.75
2023-05-09T04:29:16.412Z,5.13
2023-05-09T04:31:44.143Z,5.55
2023-05-09T04:34:11.798Z,5.47
2023-05-09T04:36:39.421Z,5.93
2023-05-09T04:39:08.052Z,5.13
2023-05-09T04:41:36.034Z,6.32
2023-05-09T04:44:03.572Z,5.85
2023-05-09T04:46:31.302Z,6.32
2023-05-09T04:48:58.737Z,6.30
2023-05-09T04:51:26.591Z,6.43
2023-05-09T04:53:53.982Z,5.90
2023-05-09T04:56:21.901Z,6.38
2023-05-09T04:58:49.447Z,6.82
2023-05-09T05:01:17.353Z,6.13
2023-05-09T05:03:46.169Z,5.55
2023-05-09T05:06:14.047Z,5.53
2023-05-09T05:08:41.574Z,6.63
2023-05-09T05:11:09.544Z,5.70
2023-05-09T05:13:37.011Z,5.95
2023-05-09T05:16:05.612Z,6.53
2023-05-09T05:18:33.120Z,5.72
2023-05-09T05:21:00.730Z,4.72
2023-05-09T05:23:28.232Z,6.07
2023-05-09T05:25:55.819Z,7.22
2023-05-09T05:28:23.558Z,5.70
2023-05-09T05:30:51.171Z,5.63
2023-05-09T05:33:18.539Z,6.00
2023-05-09T05:35:46.304Z,5.38
2023-05-09T05:38:13.560Z,6.03
2023-05-09T05:40:41.196Z,6.57
2023-05-09T05:43:08.709Z,5.47
2023-05-09T05:45:36.630Z,5.68
2023-05-09T05:48:04.116Z,6.57
2023-05-09T05:50:31.837Z,7.15
2023-05-09T05:52:59.360Z,6.15
2023-05-09T05:55:27.217Z,6.03
2023-05-09T05:57:54.646Z,5.88
2023-05-09T06:00:22.416Z,6.82
2023-05-09T06:02:50.028Z,6.15
2023-05-09T06:05:18.031Z,7.68
2023-05-09T06:07:45.570Z,7.00
2023-05-09T06:10:13.343Z,6.85
2023-05-09T06:12:41.018Z,6.25
2023-05-09T06:15:08.905Z,6.13
2023-05-09T06:17:36.444Z,6.50
2023-05-09T06:20:04.273Z,6.72
2023-05-09T06:22:31.607Z,6.32
2023-05-09T06:24:59.592Z,6.93
2023-05-09T06:27:27.156Z,6.47
2023-05-09T06:29:54.991Z,6.78
2023-05-09T06:32:22.511Z,6.60
2023-05-09T06:34:50.692Z,6.50
2023-05-09T06:37:18.120Z,6.15
2023-05-09T06:39:45.885Z,6.68
2023-05-09T06:42:13.213Z,6.93
2023-05-09T06:44:41.107Z,6.28
2023-05-09T06:47:08.536Z,6.93
2023-05-09T06:49:36.265Z,6.93
2023-05-09T06:52:03.744Z,8.05
2023-05-09T06:54:31.412Z,7.45
2023-05-09T06:56:58.859Z,5.72
2023-05-09T06:59:26.773Z,6.63
2023-05-09T07:01:54.619Z,6.15
2023-05-09T07:04:22.333Z,6.60
2023-05-09T07:06:49.667Z,6.25
2023-05-09T07:09:20.513Z,5.68
2023-05-09T07:11:47.856Z,6.63
2023-05-09T07:14:15.700Z,5.13
2023-05-09T07:16:43.185Z,5.60
2023-05-09T07:19:11.115Z,5.40
2023-05-09T07:21:38.568Z,4.88
2023-05-09T07:24:06.516Z,5.72
2023-05-09T07:26:33.827Z,5.65
2023-05-09T07:29:01.414Z,5.10
2023-05-09T07:31:28.941Z,5.70
2023-05-09T07:33:56.646Z,5.82
2023-05-09T07:36:24.100Z,5.45
2023-05-09T07:38:52.681Z,5.93
2023-05-09T07:41:20.589Z,5.70
2023-05-09T07:43:48.260Z,6.78
2023-05-09T07:46:15.899Z,5.88
2023-05-09T07:48:43.677Z,6.28
2023-05-09T07:51:11.118Z,5.78
2023-05-09T07:53:38.852Z,5.90
2023-05-09T07:56:06.782Z,5.38
2023-05-09T07:58:34.581Z,6.07
2023-05-09T08:01:01.888Z,5.80
2023-05-09T08:03:30.006Z,5.35
2023-05-09T08:05:57.392Z,5.80
2023-05-09T08:08:25.144Z,7.30
2023-05-09T08:10:52.467Z,6.00
2023-05-09T08:13:20.989Z,6.45
2023-05-09T08:15:48.844Z,6.20
2023-05-09T08:18:16.484Z,6.47
2023-05-09T08:20:43.811Z,5.43
2023-05-09T08:23:11.420Z,6.28
2023-05-09T08:25:38.775Z,5.70
2023-05-09T08:28:06.679Z,5.32
2023-05-09T08:30:33.966Z,5.22
2023-05-09T08:33:01.823Z,5.32
2023-05-09T08:35:29.211Z,5.15
2023-05-09T08:37:57.117Z,5.55
2023-05-09T08:40:24.544Z,5.22
2023-05-09T08:42:52.396Z,4.53
2023-05-09T08:45:23.624Z,4.30
2023-05-09T08:47:51.532Z,4.70
2023-05-09T08:50:19.211Z,3.90
2023-05-09T08:52:47.242Z,4.35
2023-05-09T08:55:15.014Z,3.67
2023-05-09T08:57:42.567Z,4.10
2023-05-09T09:00:11.345Z,3.97
2023-05-09T09:02:41.660Z,3.45
2023-05-09T09:05:19.653Z,3.03
2023-05-09T09:07:58.087Z,3.63
2023-05-09T09:10:27.305Z,3.88
2023-05-09T09:12:57.257Z,3.75
2023-05-09T09:15:26.817Z,4.00
2023-05-09T09:17:56.715Z,4.18
2023-05-09T09:20:25.045Z,3.95
2023-05-09T09:22:52.775Z,4.32
2023-05-09T09:25:20.152Z,3.85
2023-05-09T09:27:47.708Z,5.47
2023-05-09T09:30:15.492Z,4.30
2023-05-09T09:32:44.065Z,3.70
2023-05-09T09:35:12.559Z,4.05
2023-05-09T09:37:40.594Z,4.28
2023-05-09T09:40:10.017Z,3.60
2023-05-09T09:42:42.258Z,3.30
2023-05-09T09:45:09.810Z,3.08
2023-05-09T09:47:37.563Z,3.20
2023-05-09T09:50:31.173Z,2.92
2023-05-09T09:53:00.627Z,3.63
2023-05-09T09:55:28.068Z,3.08
2023-05-09T09:57:55.962Z,2.80
2023-05-09T10:00:30.785Z,2.75
2023-05-09T10:02:59.404Z,3.20
2023-05-09T10:05:31.522Z,3.60
2023-05-09T10:08:02.769Z,2.67
2023-05-09T10:10:34.397Z,3.38
2023-05-09T10:13:05.807Z,3.10
2023-05-09T10:15:45.096Z,2.30
2023-05-09T10:18:22.619Z,3.28
2023-05-09T10:20:50.107Z,3.10
2023-05-09T10:23:19.229Z,3.15
2023-05-09T10:25:53.738Z,3.03
2023-05-09T10:28:23.724Z,2.85
2023-05-09T10:30:55.683Z,3.00
2023-05-09T10:33:28.040Z,3.17
2023-05-09T10:35:56.134Z,2.60
2023-05-09T10:38:24.816Z,2.58
2023-05-09T10:40:53.370Z,2.45
2023-05-09T10:43:23.952Z,2.30
2023-05-09T10:45:52.142Z,2.60
2023-05-09T10:48:20.464Z,2.67
2023-05-09T10:50:48.062Z,2.40
2023-05-09T10:53:17.160Z,2.65
2023-05-09T10:55:47.911Z,2.30
2023-05-09T10:58:27.631Z,2.30
2023-05-09T11:00:57.286Z,2.63
2023-05-09T11:03:29.550Z,2.40
2023-05-09T11:05:57.840Z,2.60
2023-05-09T11:08:29.599Z,2.50
2023-05-09T11:10:58.114Z,2.35
2023-05-09T11:13:27.525Z,2.90
2023-05-09T11:16:02.150Z,2.42
2023-05-09T11:18:30.390Z,2.42
2023-05-09T11:20:58.021Z,2.22
2023-05-09T11:23:33.370Z,2.58
2023-05-09T11:26:08.051Z,3.15
2023-05-09T11:28:39.609Z,2.60
2023-05-09T11:31:10.441Z,2.58
2023-05-09T11:33:39.368Z,2.38
2023-05-09T11:36:20.417Z,2.20
2023-05-09T11:38:49.000Z,2.00
2023-05-09T11:41:16.880Z,2.50
2023-05-09T11:43:45.059Z,2.35
2023-05-09T11:46:13.048Z,2.42
2023-05-09T11:48:42.373Z,2.45
2023-05-09T11:51:17.601Z,2.20
2023-05-09T11:53:47.067Z,2.80
2023-05-09T11:56:15.104Z,2.42
2023-05-09T11:58:44.036Z,2.78
2023-05-09T12:01:12.789Z,2.80
2023-05-09T12:03:46.619Z,2.25
2023-05-09T12:06:21.057Z,2.00
2023-05-09T12:08:48.899Z,2.50
2023-05-09T12:11:16.283Z,2.25
2023-05-09T12:13:48.109Z,2.70
2023-05-09T12:16:16.304Z,2.67
2023-05-09T12:18:50.494Z,2.30
2023-05-09T12:21:18.464Z,2.38
2023-05-09T12:23:51.269Z,2.45
2023-05-09T12:26:22.722Z,3.35
2023-05-09T12:28:50.967Z,2.45
2023-05-09T12:31:18.710Z,2.30
2023-05-09T12:33:46.926Z,2.90
2023-05-09T12:36:15.888Z,2.67
2023-05-09T12:38:52.985Z,1.70
2023-05-09T12:41:34.983Z,2.60
2023-05-09T12:44:07.800Z,2.78
2023-05-09T12:46:37.404Z,2.30
2023-05-09T12:49:05.518Z,2.90
2023-05-09T12:51:32.957Z,2.22
2023-05-09T12:54:04.934Z,2.40
2023-05-09T12:56:35.839Z,2.30
2023-05-09T12:59:03.408Z,2.30
2023-05-09T13:01:31.008Z,2.38
2023-05-09T13:04:06.790Z,2.30
2023-05-09T13:06:35.659Z,2.50
2023-05-09T13:09:06.305Z,2.50
2023-05-09T13:11:34.213Z,2.25
2023-05-09T13:14:04.129Z,2.40
2023-05-09T13:16:31.600Z,2.60
2023-05-09T13:18:59.255Z,2.30
2023-05-09T13:21:26.660Z,2.33
2023-05-09T13:23:54.793Z,2.95
2023-05-09T13:26:22.732Z,2.67
2023-05-09T13:28:50.428Z,2.67
2023-05-09T13:31:19.154Z,2.20
2023-05-09T13:33:48.632Z,2.95
2023-05-09T13:36:17.390Z,2.53
2023-05-09T13:38:45.857Z,2.28
2023-05-09T13:41:19.827Z,2.58
2023-05-09T13:43:47.543Z,2.55
2023-05-09T13:46:15.064Z,2.42
2023-05-09T13:48:42.811Z,2.35
2023-05-09T13:51:11.131Z,2.45
2023-05-09T13:53:39.345Z,3.38
2023-05-09T13:56:09.223Z,2.38
2023-05-09T13:58:36.962Z,3.05
2023-05-09T14:01:04.611Z,2.45
2023-05-09T14:03:32.515Z,3.10
2023-05-09T14:05:59.980Z,2.75
2023-05-09T14:08:27.686Z,2.80
2023-05-09T14:10:55.417Z,2.30
2023-05-09T14:13:23.499Z,2.50
2023-05-09T14:15:50.960Z,2.70
2023-05-09T14:18:20.748Z,2.85
2023-05-09T14:20:48.463Z,2.30
2023-05-09T14:23:16.284Z,2.53
2023-05-09T14:25:43.810Z,2.85
2023-05-09T14:28:12.342Z,2.58
2023-05-09T14:30:39.909Z,2.47
2023-05-09T14:33:07.773Z,2.42
2023-05-09T14:35:35.409Z,3.08
2023-05-09T14:38:03.573Z,2.50
2023-05-09T14:40:32.145Z,2.67
2023-05-09T14:43:02.378Z,2.50
2023-05-09T14:45:30.488Z,2.90
2023-05-09T14:47:58.521Z,2.55
2023-05-09T14:50:26.255Z,3.05
2023-05-09T14:52:53.913Z,3.00
2023-05-09T14:55:23.128Z,2.42
2023-05-09T14:57:50.993Z,2.65
2023-05-09T15:00:21.989Z,2.60
2023-05-09T15:02:50.699Z,2.70
2023-05-09T15:05:18.298Z,2.67
2023-05-09T15:07:46.393Z,2.40
2023-05-09T15:10:14.758Z,2.88
2023-05-09T15:12:42.917Z,2.72
2023-05-09T15:15:14.693Z,2.65
2023-05-09T15:17:43.295Z,2.50
2023-05-09T15:20:11.646Z,2.50
2023-05-09T15:22:39.665Z,3.75
2023-05-09T15:25:07.714Z,3.35
2023-05-09T15:27:36.267Z,3.78
2023-05-09T15:30:04.548Z,2.47
2023-05-09T15:32:32.482Z,2.47
2023-05-09T15:34:59.928Z,2.50
2023-05-09T15:37:27.664Z,3.65
2023-05-09T15:39:55.119Z,3.08
2023-05-09T15:42:23.322Z,2.30
2023-05-09T15:44:50.695Z,2.78
2023-05-09T15:47:19.430Z,2.92
2023-05-09T15:49:46.860Z,2.70
2023-05-09T15:52:14.832Z,2.60
2023-05-09T15:54:45.106Z,3.28
2023-05-09T15:57:17.462Z,3.30
2023-05-09T15:59:44.938Z,3.20
2023-05-09T16:02:12.681Z,3.00
2023-05-09T16:04:40.264Z,2.53
2023-05-09T16:07:08.980Z,2.67
2023-05-09T16:09:37.298Z,2.97
2023-05-09T16:12:05.627Z,2.15
2023-05-09T16:14:33.108Z,2.70
2023-05-09T16:17:00.853Z,2.67
2023-05-09T16:19:28.671Z,2.90
2023-05-09T16:21:56.444Z,2.50
2023-05-09T16:24:23.776Z,2.38
2023-05-09T16:26:51.495Z,2.92
2023-05-09T16:29:18.804Z,2.53
2023-05-09T16:31:46.556Z,2.72
2023-05-09T16:34:13.978Z,2.60
2023-05-09T16:36:44.061Z,2.47
2023-05-09T16:39:11.899Z,2.65
2023-05-09T16:41:39.976Z,3.00
2023-05-09T16:44:07.314Z,2.88
2023-05-09T16:46:35.005Z,3.30
2023-05-09T16:49:02.300Z,2.75
2023-05-09T16:51:30.613Z,2.70
2023-05-09T16:53:58.428Z,2.95
2023-05-09T16:56:26.693Z,2.78
2023-05-09T16:58:54.346Z,2.80
2023-05-09T17:01:22.151Z,2.63
2023-05-09T17:03:50.315Z,2.78
2023-05-09T17:06:18.573Z,2.95
2023-05-09T17:08:46.412Z,3.00
2023-05-09T17:11:14.067Z,2.50
2023-05-09T17:13:42.894Z,2.90
2023-05-09T17:16:10.967Z,3.65
2023-05-09T17:18:38.557Z,3.28
2023-05-09T17:21:06.975Z,3.25
2023-05-09T17:23:35.243Z,2.60
2023-05-09T17:26:03.890Z,3.00
2023-05-09T17:28:31.500Z,2.55
2023-05-09T17:30:59.595Z,2.97
2023-05-09T17:33:28.021Z,3.45
2023-05-09T17:35:57.815Z,4.93
2023-05-09T17:38:25.539Z,4.20
2023-05-09T17:40:53.897Z,4.65
2023-05-09T17:43:22.402Z,4.38
2023-05-09T17:45:52.009Z,3.88
2023-05-09T17:48:20.000Z,4.75
2023-05-09T17:50:48.005Z,5.22
2023-05-09T17:53:16.096Z,7.85
2023-05-09T17:55:43.890Z,8.15
2023-05-09T17:58:11.379Z,7.10
2023-05-09T18:00:40.058Z,5.03
2023-05-09T18:03:07.616Z,5.28
2023-05-09T18:05:35.829Z,5.97
2023-05-09T18:08:04.037Z,5.05
2023-05-09T18:10:32.165Z,5.95
2023-05-09T18:12:59.874Z,6.85
2023-05-09T18:15:27.902Z,6.05
2023-05-09T18:17:57.764Z,5.50
2023-05-09T18:20:25.878Z,5.93
2023-05-09T18:22:54.502Z,5.82
2023-05-09T18:25:22.517Z,6.18
2023-05-09T18:27:50.052Z,6.38
2023-05-09T18:30:18.663Z,7.07
2023-05-09T18:32:47.244Z,6.95
2023-05-09T18:35:16.307Z,7.20
2023-05-09T18:37:43.944Z,6.82
2023-05-09T18:40:16.104Z,6.28
2023-05-09T18:42:44.072Z,6.13
2023-05-09T18:45:12.585Z,6.75
2023-05-09T18:47:40.461Z,6.90
2023-05-09T18:50:08.612Z,5.07
2023-05-09T18:52:36.065Z,5.55
2023-05-09T18:55:06.004Z,4.70
2023-05-09T18:57:34.096Z,4.72
2023-05-09T19:00:02.685Z,5.78
2023-05-09T19:02:30.874Z,5.28
2023-05-09T19:05:00.912Z,4.88
2023-05-09T19:07:29.256Z,5.05
2023-05-09T19:09:57.217Z,5.18
2023-05-09T19:12:25.185Z,5.63
2023-05-09T19:14:53.945Z,6.43
2023-05-09T19:17:21.580Z,8.48
2023-05-09T19:19:49.555Z,7.22
2023-05-09T19:22:17.010Z,9.48
2023-05-09T19:24:45.061Z,7.80
2023-05-09T19:27:12.667Z,6.03
2023-05-09T19:29:40.802Z,5.65
2023-05-09T19:32:08.933Z,5.80
2023-05-09T19:34:38.138Z,7.28
2023-05-09T19:37:05.935Z,6.97
2023-05-09T19:39:34.330Z,5.25
2023-05-09T19:42:02.644Z,7.05
2023-05-09T19:44:32.480Z,6.00
2023-05-09T19:47:01.486Z,5.25
2023-05-09T19:49:29.211Z,5.15
2023-05-09T19:51:56.812Z,4.72
2023-05-09T19:54:26.982Z,5.72
2023-05-09T19:56:54.485Z,6.07
2023-05-09T19:59:24.033Z,6.38
2023-05-09T20:01:51.560Z,6.63
2023-05-09T20:04:21.882Z,6.03
2023-05-09T20:06:49.290Z,5.45
2023-05-09T20:09:20.853Z,5.25
2023-05-09T20:11:48.556Z,4.78
2023-05-09T20:14:16.336Z,5.18
2023-05-09T20:16:43.985Z,5.18
2023-05-09T20:19:15.580Z,5.65
2023-05-09T20:21:43.043Z,4.97
2023-05-09T20:24:11.737Z,5.18
2023-05-09T20:26:39.395Z,5.30
2023-05-09T20:29:07.212Z,5.15
2023-05-09T20:31:34.897Z,5.68
2023-05-09T20:34:02.909Z,5.70
2023-05-09T20:36:30.586Z,5.32
2023-05-09T20:38:58.467Z,5.25
2023-05-09T20:41:25.859Z,4.85
2023-05-09T20:43:53.549Z,5.35
2023-05-09T20:46:21.188Z,5.72
2023-05-09T20:48:48.856Z,6.40
2023-05-09T20:51:16.223Z,5.88
2023-05-09T20:53:43.860Z,5.05
2023-05-09T20:56:11.170Z,4.82
2023-05-09T20:58:38.782Z,4.53
2023-05-09T21:01:06.212Z,4.80
2023-05-09T21:03:33.901Z,4.75
2023-05-09T21:06:01.281Z,4.15
2023-05-09T21:08:28.877Z,4.93
2023-05-09T21:10:56.175Z,5.07
2023-05-09T21:13:24.051Z,4.43
2023-05-09T21:15:51.625Z,4.28
2023-05-09T21:18:19.925Z,3.70
2023-05-09T21:20:47.340Z,3.70
2023-05-09T21:23:15.375Z,3.67
2023-05-09T21:25:42.701Z,3.40
2023-05-09T21:28:10.452Z,4.45
2023-05-09T21:30:37.777Z,3.50
2023-05-09T21:33:05.450Z,3.28
2023-05-09T21:35:32.899Z,3.45
2023-05-09T21:38:00.542Z,3.45
2023-05-09T21:40:28.031Z,3.60
2023-05-09T21:42:55.702Z,3.45
2023-05-09T21:45:23.146Z,4.25
2023-05-09T21:47:51.513Z,5.22
2023-05-09T21:50:19.114Z,4.53
2023-05-09T21:52:46.818Z,3.45
2023-05-09T21:55:14.382Z,4.00
2023-05-09T21:57:41.940Z,4.70
2023-05-09T22:00:16.759Z,6.38
2023-05-09T22:02:44.725Z,4.85
2023-05-09T22:05:12.617Z,3.92
2023-05-09T22:07:40.463Z,3.95
2023-05-09T22:10:08.077Z,3.83
2023-05-09T22:12:35.934Z,4.38
2023-05-09T22:15:03.315Z,3.53
2023-05-09T22:17:31.026Z,3.55
2023-05-09T22:19:58.739Z,3.67
2023-05-09T22:22:27.242Z,3.70
2023-05-09T22:24:54.625Z,3.28
2023-05-09T22:27:22.195Z,3.10
2023-05-09T22:29:49.797Z,4.65
2023-05-09T22:32:17.864Z,3.38
2023-05-09T22:34:48.086Z,3.78
2023-05-09T22:37:16.027Z,3.42
2023-05-09T22:39:43.475Z,3.60
2023-05-09T22:42:11.376Z,4.30
2023-05-09T22:44:39.472Z,4.82
2023-05-09T22:47:10.522Z,4.50
2023-05-09T22:49:37.930Z,6.22
2023-05-09T22:52:05.650Z,5.32
2023-05-09T22:54:33.077Z,4.90
2023-05-09T22:57:01.018Z,4.68
2023-05-09T22:59:28.429Z,3.50
2023-05-09T23:01:57.724Z,4.28
2023-05-09T23:04:25.078Z,3.17
2023-05-09T23:06:52.874Z,3.20
2023-05-09T23:09:20.334Z,3.17
2023-05-09T23:11:47.907Z,3.53
2023-05-09T23:14:15.337Z,4.30
2023-05-09T23:16:43.042Z,3.47
2023-05-09T23:19:10.851Z,3.17
2023-05-09T23:21:38.807Z,3.88
2023-05-09T23:24:06.315Z,3.20
2023-05-09T23:26:34.126Z,3.70
2023-05-09T23:29:01.691Z,3.53
2023-05-09T23:31:29.761Z,4.15
2023-05-09T23:33:57.189Z,3.50
2023-05-09T23:36:24.838Z,3.53
2023-05-09T23:38:52.323Z,3.33
2023-05-09T23:41:21.958Z,3.60
2023-05-09T23:43:49.466Z,3.05
2023-05-09T23:46:17.455Z,3.92
2023-05-09T23:48:44.797Z,3.60
2023-05-09T23:51:12.987Z,4.53
2023-05-09T23:53:40.302Z,3.72
2023-05-09T23:56:08.272Z,3.78
2023-05-09T23:58:35.562Z,3.35
